ABI weather

Abilene Regional Airport
Abilene, Texas, United States

Public forecast

Using degrees Fahrenheit for public forecast. Weather courtesy of forecast.io.

Current aviation weather report (METAR) for Abilene Regional Airport

Retrieved 2019/12/08 22:52 UTC (1 hour ago):

KABI 082252Z 25007KT 10SM CLR 24/04 A2979 RMK AO2 SLP071 T02440044

Aviation forecast (TAF) for Abilene Regional Airport

Retrieved 2019/12/08 18:22 UTC (6 hours ago):

TAF KABI 081720Z 0818/0918 22015G24KT P6SM BKN200 FM090700 23011KT P6SM BKN200 FM091600 28011KT P6SM OVC100